createdAt,value
2023-08-08T00:01:30.810Z,12.96
2023-08-08T00:03:58.203Z,12.95
2023-08-08T00:06:25.183Z,13.02
2023-08-08T00:08:52.078Z,13.02
2023-08-08T00:11:19.139Z,13.06
2023-08-08T00:13:46.221Z,13.08
2023-08-08T00:16:13.205Z,13.11
2023-08-08T00:18:40.062Z,13.14
2023-08-08T00:21:07.193Z,13.16
2023-08-08T00:23:34.008Z,13.14
2023-08-08T00:26:01.009Z,13.15
2023-08-08T00:28:27.988Z,13.14
2023-08-08T00:30:55.003Z,13.16
2023-08-08T00:33:22.083Z,13.19
2023-08-08T00:35:49.121Z,13.25
2023-08-08T00:38:17.588Z,13.24
2023-08-08T00:40:45.038Z,13.23
2023-08-08T00:43:11.939Z,13.24
2023-08-08T00:45:40.201Z,13.23
2023-08-08T00:48:07.414Z,13.28
2023-08-08T00:50:34.908Z,13.27
2023-08-08T00:53:05.442Z,13.25
2023-08-08T00:55:32.823Z,13.24
2023-08-08T00:58:00.472Z,13.26
2023-08-08T01:00:27.579Z,13.28
2023-08-08T01:02:54.590Z,13.26
2023-08-08T01:05:21.849Z,13.28
2023-08-08T01:07:58.953Z,13.26
2023-08-08T01:10:33.319Z,13.24
2023-08-08T01:13:03.129Z,13.28
2023-08-08T01:15:36.661Z,13.28
2023-08-08T01:18:09.060Z,13.25
2023-08-08T01:20:36.509Z,13.25
2023-08-08T01:23:32.212Z,13.26
2023-08-08T01:25:59.868Z,13.31
2023-08-08T01:28:27.535Z,13.32
2023-08-08T01:30:55.360Z,13.31
2023-08-08T01:33:23.318Z,13.29
2023-08-08T01:36:07.188Z,13.29
2023-08-08T01:38:42.569Z,13.30
2023-08-08T01:41:09.931Z,13.29
2023-08-08T01:43:39.248Z,13.28
2023-08-08T01:46:06.792Z,13.34
2023-08-08T01:48:34.179Z,13.31
2023-08-08T01:51:01.439Z,13.27
2023-08-08T01:53:28.647Z,13.26
2023-08-08T01:55:55.636Z,13.29
2023-08-08T01:58:22.706Z,13.26
2023-08-08T02:00:49.931Z,13.23
2023-08-08T02:03:17.108Z,13.23
2023-08-08T02:05:44.381Z,13.23
2023-08-08T02:08:11.317Z,13.24
2023-08-08T02:10:38.325Z,13.24
2023-08-08T02:13:05.691Z,13.24
2023-08-08T02:15:32.607Z,13.21
2023-08-08T02:18:01.025Z,13.22
2023-08-08T02:20:28.311Z,13.22
2023-08-08T02:22:55.276Z,13.24
2023-08-08T02:25:22.227Z,13.21
2023-08-08T02:27:49.449Z,13.25
2023-08-08T02:30:16.424Z,13.21
2023-08-08T02:32:44.565Z,13.20
2023-08-08T02:35:13.155Z,13.24
2023-08-08T02:37:40.154Z,13.23
2023-08-08T02:40:10.866Z,13.20
2023-08-08T02:42:38.273Z,13.18
2023-08-08T02:45:05.836Z,13.18
2023-08-08T02:47:32.996Z,13.20
2023-08-08T02:49:59.942Z,13.19
2023-08-08T02:52:27.059Z,13.22
2023-08-08T02:54:54.304Z,13.24
2023-08-08T02:57:22.383Z,13.24
2023-08-08T02:59:49.344Z,13.23
2023-08-08T03:02:16.379Z,13.21
2023-08-08T03:04:43.370Z,13.20
2023-08-08T03:07:10.926Z,13.21
2023-08-08T03:09:38.768Z,13.20
2023-08-08T03:12:06.334Z,13.26
2023-08-08T03:14:34.910Z,13.26
2023-08-08T03:17:03.509Z,13.24
2023-08-08T03:19:32.888Z,13.27
2023-08-08T03:22:01.969Z,13.27
2023-08-08T03:24:29.489Z,13.31
2023-08-08T03:26:56.739Z,13.29
2023-08-08T03:29:23.875Z,13.32
2023-08-08T03:31:50.869Z,13.34
2023-08-08T03:34:18.739Z,13.36
2023-08-08T03:36:46.538Z,13.37
2023-08-08T03:39:13.991Z,13.35
2023-08-08T03:41:41.053Z,13.36
2023-08-08T03:44:08.175Z,13.36
2023-08-08T03:46:36.165Z,13.31
2023-08-08T03:49:03.524Z,13.31
2023-08-08T03:51:30.856Z,13.30
2023-08-08T03:53:58.517Z,13.30
2023-08-08T03:56:25.884Z,13.33
2023-08-08T03:58:54.315Z,13.34
2023-08-08T04:01:22.661Z,13.38
2023-08-08T04:03:49.690Z,13.37
2023-08-08T04:06:16.899Z,13.38
2023-08-08T04:08:43.818Z,13.40
2023-08-08T04:11:10.802Z,13.38
2023-08-08T04:13:38.191Z,13.38
2023-08-08T04:16:05.080Z,13.38
2023-08-08T04:18:32.204Z,13.39
2023-08-08T04:20:59.106Z,13.40
2023-08-08T04:23:27.125Z,13.39
2023-08-08T04:25:54.413Z,13.36
2023-08-08T04:28:21.562Z,13.34
2023-08-08T04:30:48.624Z,13.35
2023-08-08T04:33:16.565Z,13.34
2023-08-08T04:35:43.971Z,13.35
2023-08-08T04:38:11.263Z,13.36
2023-08-08T04:40:39.451Z,13.38
2023-08-08T04:43:06.615Z,13.39
2023-08-08T04:45:34.701Z,13.42
2023-08-08T04:48:01.681Z,13.49
2023-08-08T04:50:29.573Z,13.56
2023-08-08T04:52:56.535Z,13.58
2023-08-08T04:55:23.626Z,13.57
2023-08-08T04:57:50.518Z,13.51
2023-08-08T05:00:17.797Z,13.49
2023-08-08T05:02:44.758Z,13.49
2023-08-08T05:05:12.021Z,13.53
2023-08-08T05:07:39.183Z,13.57
2023-08-08T05:10:06.636Z,13.62
2023-08-08T05:12:33.707Z,13.64
2023-08-08T05:15:00.777Z,13.66
2023-08-08T05:17:27.892Z,13.69
2023-08-08T05:19:54.810Z,13.77
2023-08-08T05:22:21.911Z,13.83
2023-08-08T05:24:48.809Z,13.88
2023-08-08T05:27:15.890Z,13.97
2023-08-08T05:29:42.788Z,14.11
2023-08-08T05:32:09.960Z,14.26
2023-08-08T05:34:36.981Z,14.36
2023-08-08T05:37:16.003Z,14.38
2023-08-08T05:39:44.026Z,14.41
2023-08-08T05:42:10.931Z,14.43
2023-08-08T05:44:38.058Z,14.42
2023-08-08T05:47:05.202Z,14.46
2023-08-08T05:49:32.298Z,14.50
2023-08-08T05:51:59.517Z,14.43
2023-08-08T05:54:26.883Z,14.35
2023-08-08T05:56:53.798Z,14.34
2023-08-08T05:59:20.840Z,14.39
2023-08-08T06:01:47.878Z,14.39
2023-08-08T06:04:15.273Z,14.43
2023-08-08T06:06:42.564Z,14.53
2023-08-08T06:09:09.969Z,14.62
2023-08-08T06:11:37.096Z,14.72
2023-08-08T06:14:04.061Z,14.77
2023-08-08T06:16:31.089Z,14.85
2023-08-08T06:18:58.305Z,15.11
2023-08-08T06:21:25.527Z,15.33
2023-08-08T06:23:55.795Z,15.39
2023-08-08T06:26:23.319Z,15.46
2023-08-08T06:28:52.789Z,15.49
2023-08-08T06:31:20.555Z,15.46
2023-08-08T06:33:47.570Z,15.52
2023-08-08T06:36:14.576Z,15.62
2023-08-08T06:38:41.621Z,15.65
2023-08-08T06:41:09.596Z,15.60
2023-08-08T06:43:36.735Z,15.57
2023-08-08T06:46:03.883Z,15.49
2023-08-08T06:48:31.044Z,15.49
2023-08-08T06:50:58.012Z,15.51
2023-08-08T06:53:25.372Z,15.52
2023-08-08T06:55:52.528Z,15.46
2023-08-08T06:58:19.817Z,15.48
2023-08-08T07:00:46.699Z,15.51
2023-08-08T07:03:13.893Z,15.54
2023-08-08T07:05:40.851Z,15.70
2023-08-08T07:08:09.951Z,15.87
2023-08-08T07:10:37.481Z,16.03
2023-08-08T07:13:04.594Z,16.07
2023-08-08T07:15:32.365Z,16.13
2023-08-08T07:17:59.438Z,16.33
2023-08-08T07:20:26.681Z,16.47
2023-08-08T07:22:54.333Z,16.52
2023-08-08T07:25:21.471Z,16.45
2023-08-08T07:27:48.439Z,16.55
2023-08-08T07:30:15.751Z,16.63
2023-08-08T07:32:42.718Z,16.51
2023-08-08T07:35:10.070Z,16.38
2023-08-08T07:37:37.001Z,16.37
2023-08-08T07:40:05.202Z,16.46
2023-08-08T07:42:32.831Z,16.45
2023-08-08T07:44:59.788Z,16.46
2023-08-08T07:47:27.009Z,16.36
2023-08-08T07:49:53.995Z,16.38
2023-08-08T07:52:21.141Z,16.52
2023-08-08T07:54:48.068Z,16.63
2023-08-08T07:57:15.136Z,16.68
2023-08-08T07:59:42.071Z,16.76
2023-08-08T08:02:09.154Z,16.90
2023-08-08T08:04:36.640Z,17.06
2023-08-08T08:07:05.412Z,16.97
2023-08-08T08:09:32.254Z,16.80
2023-08-08T08:11:59.436Z,16.68
2023-08-08T08:14:26.869Z,16.56
2023-08-08T08:16:54.069Z,16.30
2023-08-08T08:19:21.358Z,16.36
2023-08-08T08:21:48.371Z,16.63
2023-08-08T08:24:17.021Z,16.94
2023-08-08T08:26:44.309Z,17.28
2023-08-08T08:29:11.247Z,17.44
2023-08-08T08:31:39.488Z,17.60
2023-08-08T08:34:06.478Z,17.67
2023-08-08T08:36:33.446Z,17.65
2023-08-08T08:39:00.677Z,17.58
2023-08-08T08:41:28.856Z,17.31
2023-08-08T08:43:56.243Z,17.16
2023-08-08T08:46:23.975Z,17.07
2023-08-08T08:48:51.708Z,16.97
2023-08-08T08:51:19.998Z,16.94
2023-08-08T08:53:47.784Z,17.17
2023-08-08T08:56:16.011Z,17.42
2023-08-08T08:58:43.370Z,17.64
2023-08-08T09:01:10.964Z,17.75
2023-08-08T09:03:38.173Z,18.01
2023-08-08T09:06:06.801Z,18.11
2023-08-08T09:08:33.743Z,18.23
2023-08-08T09:11:00.778Z,18.10
2023-08-08T09:13:27.861Z,17.87
2023-08-08T09:15:56.387Z,17.60
2023-08-08T09:18:26.053Z,17.44
2023-08-08T09:20:53.376Z,17.30
2023-08-08T09:23:20.387Z,17.36
2023-08-08T09:25:47.491Z,17.39
2023-08-08T09:28:14.433Z,17.37
2023-08-08T09:30:43.376Z,17.30
2023-08-08T09:33:10.371Z,17.34
2023-08-08T09:35:40.046Z,17.47
2023-08-08T09:38:07.298Z,17.64
2023-08-08T09:40:34.585Z,17.95
2023-08-08T09:43:01.493Z,18.24
2023-08-08T09:45:28.555Z,18.38
2023-08-08T09:47:55.526Z,18.35
2023-08-08T09:50:25.519Z,18.13
2023-08-08T09:52:54.462Z,18.04
2023-08-08T09:55:22.008Z,18.04
2023-08-08T09:57:50.041Z,18.09
2023-08-08T10:00:17.809Z,18.24
2023-08-08T10:02:46.795Z,18.31
2023-08-08T10:05:15.870Z,18.53
2023-08-08T10:07:43.220Z,18.75
2023-08-08T10:10:10.854Z,19.12
2023-08-08T10:12:39.583Z,19.38
2023-08-08T10:15:09.406Z,19.52
2023-08-08T10:17:38.402Z,19.21
2023-08-08T10:20:12.564Z,18.90
2023-08-08T10:22:44.340Z,18.67
2023-08-08T10:25:18.385Z,18.65
2023-08-08T10:27:45.502Z,18.71
2023-08-08T10:30:13.516Z,18.71
2023-08-08T10:32:42.562Z,18.60
2023-08-08T10:35:10.396Z,18.42
2023-08-08T10:37:38.683Z,18.35
2023-08-08T10:40:07.416Z,18.45
2023-08-08T10:42:43.218Z,18.64
2023-08-08T10:45:13.605Z,18.68
2023-08-08T10:47:41.450Z,18.80
2023-08-08T10:50:13.985Z,18.94
2023-08-08T10:53:00.839Z,19.04
2023-08-08T10:55:33.699Z,19.09
2023-08-08T10:58:11.734Z,19.01
2023-08-08T11:00:41.032Z,18.90
2023-08-08T11:03:09.954Z,18.84
2023-08-08T11:05:38.352Z,18.77
2023-08-08T11:08:06.800Z,18.53
2023-08-08T11:10:40.226Z,18.25
2023-08-08T11:13:08.538Z,18.08
2023-08-08T11:15:36.860Z,17.85
2023-08-08T11:18:04.630Z,17.56
2023-08-08T11:20:36.444Z,17.31
2023-08-08T11:23:07.181Z,17.27
2023-08-08T11:25:34.444Z,17.21
2023-08-08T11:28:01.427Z,17.37
2023-08-08T11:30:34.677Z,17.62
2023-08-08T11:35:32.536Z,18.02
2023-08-08T11:38:00.347Z,18.17
2023-08-08T11:40:29.500Z,18.15
2023-08-08T11:42:58.084Z,18.23
2023-08-08T11:45:26.161Z,18.32
2023-08-08T11:47:55.026Z,18.33
2023-08-08T11:50:28.516Z,18.42
2023-08-08T11:52:56.905Z,18.63
2023-08-08T11:55:30.341Z,18.78
2023-08-08T11:57:58.259Z,18.83
2023-08-08T12:00:29.741Z,18.84
2023-08-08T12:02:56.947Z,19.00
2023-08-08T12:05:24.169Z,19.07
2023-08-08T12:07:51.448Z,19.24
2023-08-08T12:10:20.461Z,19.41
2023-08-08T12:12:53.323Z,19.50
2023-08-08T12:15:20.902Z,19.61
2023-08-08T12:17:50.834Z,19.62
2023-08-08T12:20:18.229Z,19.65
2023-08-08T12:22:45.248Z,19.84
2023-08-08T12:25:12.511Z,19.75
2023-08-08T12:27:39.982Z,19.63
2023-08-08T12:30:08.608Z,19.76
2023-08-08T12:32:35.606Z,19.88
2023-08-08T12:35:02.739Z,19.57
2023-08-08T12:37:29.904Z,19.39
2023-08-08T12:39:57.933Z,19.28
2023-08-08T12:42:25.068Z,19.29
2023-08-08T12:44:55.183Z,19.52
2023-08-08T12:47:22.442Z,19.80
2023-08-08T12:49:49.512Z,20.00
2023-08-08T12:52:16.798Z,20.08
2023-08-08T12:54:43.908Z,20.27
2023-08-08T12:57:10.883Z,20.52
2023-08-08T12:59:38.181Z,20.53
2023-08-08T13:02:05.409Z,20.46
2023-08-08T13:04:32.882Z,20.39
2023-08-08T13:07:00.044Z,20.35
2023-08-08T13:09:27.088Z,20.03
2023-08-08T13:11:54.316Z,19.63
2023-08-08T13:14:21.530Z,19.40
2023-08-08T13:16:48.636Z,19.28
2023-08-08T13:19:17.738Z,19.16
2023-08-08T13:21:44.916Z,19.15
2023-08-08T13:24:13.892Z,19.10
2023-08-08T13:26:41.343Z,19.06
2023-08-08T13:29:09.419Z,18.89
2023-08-08T13:31:36.520Z,18.52
2023-08-08T13:34:03.592Z,17.88
2023-08-08T13:36:30.773Z,17.41
2023-08-08T13:38:57.702Z,17.21
2023-08-08T13:41:24.758Z,17.17
2023-08-08T13:43:57.698Z,17.33
2023-08-08T13:46:24.796Z,17.55
2023-08-08T13:48:51.876Z,17.76
2023-08-08T13:51:19.325Z,17.86
2023-08-08T13:53:46.636Z,17.94
2023-08-08T13:56:13.694Z,18.05
2023-08-08T13:58:40.705Z,18.26
2023-08-08T14:01:08.032Z,18.57
2023-08-08T14:03:35.604Z,18.69
2023-08-08T14:06:02.758Z,18.68
2023-08-08T14:08:29.840Z,18.81
2023-08-08T14:10:57.151Z,18.98
2023-08-08T14:13:24.154Z,19.18
2023-08-08T14:15:53.129Z,19.24
2023-08-08T14:18:20.725Z,19.08
2023-08-08T14:20:48.597Z,18.96
2023-08-08T14:23:15.640Z,18.87
2023-08-08T14:25:43.012Z,18.72
2023-08-08T14:28:09.927Z,18.42
2023-08-08T14:30:37.067Z,18.39
2023-08-08T14:33:04.416Z,18.36
2023-08-08T14:35:31.635Z,18.49
2023-08-08T14:37:58.695Z,18.58
2023-08-08T14:40:25.610Z,18.63
2023-08-08T14:42:56.225Z,18.88
2023-08-08T14:45:23.553Z,19.16
2023-08-08T14:47:50.517Z,19.29
2023-08-08T14:50:18.022Z,19.38
2023-08-08T14:52:45.121Z,19.49
2023-08-08T14:55:12.235Z,19.55
2023-08-08T14:57:39.420Z,19.49
2023-08-08T15:00:07.843Z,19.33
2023-08-08T15:02:35.002Z,19.14
2023-08-08T15:05:02.084Z,18.76
2023-08-08T15:07:29.122Z,18.65
2023-08-08T15:09:56.251Z,18.59
2023-08-08T15:12:23.383Z,18.59
2023-08-08T15:14:52.022Z,18.58
2023-08-08T15:17:18.998Z,18.53
2023-08-08T15:19:45.990Z,18.47
2023-08-08T15:22:15.214Z,18.50
2023-08-08T15:24:42.489Z,18.55
2023-08-08T15:27:10.211Z,18.56
2023-08-08T15:29:37.397Z,18.52
2023-08-08T15:32:04.564Z,18.38
2023-08-08T15:34:31.898Z,18.18
2023-08-08T15:37:00.602Z,17.61
2023-08-08T15:39:27.909Z,16.60
2023-08-08T15:41:54.946Z,15.97
2023-08-08T15:44:21.908Z,15.53
2023-08-08T15:46:48.997Z,15.06
2023-08-08T15:49:16.525Z,14.64
2023-08-08T15:51:43.613Z,14.33
2023-08-08T15:54:10.820Z,14.11
2023-08-08T15:56:39.579Z,13.92
2023-08-08T15:59:06.930Z,13.77
2023-08-08T16:01:39.703Z,13.68
2023-08-08T16:04:07.571Z,13.59
2023-08-08T16:06:34.662Z,13.55
2023-08-08T16:09:01.668Z,13.44
2023-08-08T16:11:28.676Z,13.43
2023-08-08T16:13:55.650Z,13.37
2023-08-08T16:16:22.584Z,13.32
2023-08-08T16:18:49.632Z,13.30
2023-08-08T16:21:16.594Z,13.30
2023-08-08T16:23:47.090Z,13.30
2023-08-08T16:26:18.610Z,13.30
2023-08-08T16:28:45.859Z,13.30
2023-08-08T16:31:13.223Z,13.28
2023-08-08T16:33:40.203Z,13.25
2023-08-08T16:36:08.843Z,13.22
2023-08-08T16:38:37.645Z,13.19
2023-08-08T16:41:04.847Z,13.19
2023-08-08T16:43:36.788Z,13.19
2023-08-08T16:46:04.098Z,13.25
2023-08-08T16:48:31.754Z,13.25
2023-08-08T16:50:59.184Z,13.22
2023-08-08T16:53:26.375Z,13.17
2023-08-08T16:55:53.463Z,13.10
2023-08-08T16:58:20.549Z,13.07
2023-08-08T17:00:47.900Z,13.07
2023-08-08T17:03:15.141Z,13.06
2023-08-08T17:05:42.268Z,13.02
2023-08-08T17:08:09.234Z,13.02
2023-08-08T17:10:37.933Z,13.03
2023-08-08T17:13:04.910Z,13.00
2023-08-08T17:15:31.806Z,13.05
2023-08-08T17:17:59.194Z,13.11
2023-08-08T17:20:26.096Z,13.15
2023-08-08T17:22:53.189Z,13.14
2023-08-08T17:25:20.129Z,13.10
2023-08-08T17:27:48.571Z,13.09
2023-08-08T17:30:15.760Z,13.10
2023-08-08T17:32:42.795Z,13.13
2023-08-08T17:35:09.926Z,13.10
2023-08-08T17:37:36.849Z,13.12
2023-08-08T17:40:04.236Z,13.13
2023-08-08T17:42:31.162Z,13.08
2023-08-08T17:44:58.190Z,13.00
2023-08-08T17:47:25.153Z,12.92
2023-08-08T17:49:52.217Z,12.84
2023-08-08T17:52:19.180Z,12.77
2023-08-08T17:54:46.147Z,12.68
2023-08-08T17:57:13.060Z,12.62
2023-08-08T17:59:40.111Z,12.59
2023-08-08T18:02:07.353Z,12.56
2023-08-08T18:04:35.045Z,12.52
2023-08-08T18:07:02.107Z,12.51
2023-08-08T18:09:30.855Z,12.50
2023-08-08T18:11:58.853Z,12.53
2023-08-08T18:14:26.192Z,12.54
2023-08-08T18:16:53.395Z,12.53
2023-08-08T18:19:24.536Z,12.54
2023-08-08T18:21:51.722Z,12.55
2023-08-08T18:24:18.650Z,12.55
2023-08-08T18:26:45.810Z,12.52
2023-08-08T18:29:14.745Z,12.47
2023-08-08T18:31:44.386Z,12.44
2023-08-08T18:34:17.595Z,12.45
2023-08-08T18:36:46.372Z,12.47
2023-08-08T18:39:14.191Z,12.47
2023-08-08T18:41:42.504Z,12.46
2023-08-08T18:44:12.889Z,12.46
2023-08-08T18:46:43.728Z,12.42
2023-08-08T18:49:17.195Z,12.43
2023-08-08T18:51:48.408Z,12.36
2023-08-08T18:54:16.759Z,12.32
2023-08-08T18:56:44.132Z,12.28
2023-08-08T18:59:11.219Z,12.27
2023-08-08T19:01:38.329Z,12.24
2023-08-08T19:04:05.906Z,12.20
2023-08-08T19:06:33.150Z,12.19
2023-08-08T19:09:01.706Z,12.21
2023-08-08T19:11:28.735Z,12.18
2023-08-08T19:13:55.671Z,12.15
2023-08-08T19:16:22.701Z,12.10
2023-08-08T19:18:49.825Z,12.07
2023-08-08T19:21:16.841Z,11.99
2023-08-08T19:23:43.898Z,11.96
2023-08-08T19:26:10.971Z,11.97
2023-08-08T19:28:37.960Z,11.97
2023-08-08T19:31:05.365Z,11.95
2023-08-08T19:33:32.333Z,11.94
2023-08-08T19:36:01.358Z,11.90
2023-08-08T19:38:28.546Z,11.91
2023-08-08T19:40:55.610Z,11.91
2023-08-08T19:43:22.777Z,11.90
2023-08-08T19:45:50.753Z,11.90
2023-08-08T19:48:19.072Z,11.88
2023-08-08T19:50:51.247Z,11.91
2023-08-08T19:53:21.884Z,11.94
2023-08-08T19:55:50.497Z,11.95
2023-08-08T19:58:18.303Z,11.99
2023-08-08T20:00:45.965Z,11.98
2023-08-08T20:03:13.683Z,12.02
2023-08-08T20:05:41.230Z,12.03
2023-08-08T20:08:11.120Z,12.06
2023-08-08T20:10:41.213Z,12.10
2023-08-08T20:13:13.273Z,12.16
2023-08-08T20:15:42.940Z,12.18
2023-08-08T20:18:10.659Z,12.21
2023-08-08T20:20:38.025Z,12.28
2023-08-08T20:23:04.972Z,12.31
2023-08-08T20:25:33.029Z,12.24
2023-08-08T20:28:00.389Z,12.17
2023-08-08T20:30:30.667Z,12.13
2023-08-08T20:33:01.188Z,12.13
2023-08-08T20:35:33.942Z,12.19
2023-08-08T20:38:05.289Z,12.15
2023-08-08T20:40:32.414Z,12.11
2023-08-08T20:42:59.399Z,12.09
2023-08-08T20:45:26.579Z,12.10
2023-08-08T20:47:53.714Z,12.11
2023-08-08T20:50:21.275Z,12.06
2023-08-08T20:52:52.458Z,12.01
2023-08-08T20:55:19.768Z,12.03
2023-08-08T20:57:46.714Z,11.98
2023-08-08T21:00:14.201Z,11.91
2023-08-08T21:02:41.267Z,11.83
2023-08-08T21:05:08.717Z,11.79
2023-08-08T21:07:35.937Z,11.75
2023-08-08T21:10:03.116Z,11.65
2023-08-08T21:12:30.727Z,11.55
2023-08-08T21:15:00.682Z,11.44
2023-08-08T21:17:28.587Z,11.36
2023-08-08T21:19:55.565Z,11.26
2023-08-08T21:22:26.260Z,11.18
2023-08-08T21:24:55.503Z,11.14
2023-08-08T21:27:22.424Z,11.16
2023-08-08T21:29:49.451Z,11.22
2023-08-08T21:32:16.591Z,11.28
2023-08-08T21:34:43.566Z,11.34
2023-08-08T21:37:10.897Z,11.40
2023-08-08T21:39:37.917Z,11.43
2023-08-08T21:42:05.227Z,11.43
2023-08-08T21:44:32.355Z,11.43
2023-08-08T21:47:00.200Z,11.41
2023-08-08T21:49:27.431Z,11.38
2023-08-08T21:54:21.612Z,11.27
2023-08-08T21:56:48.729Z,11.22
2023-08-08T21:59:15.634Z,11.15
2023-08-08T22:01:42.732Z,11.09
2023-08-08T22:04:09.796Z,11.04
2023-08-08T22:06:37.035Z,11.01
2023-08-08T22:09:04.192Z,11.01
2023-08-08T22:11:31.515Z,11.01
2023-08-08T22:14:00.177Z,11.00
2023-08-08T22:16:29.974Z,10.99
2023-08-08T22:18:56.981Z,10.99
2023-08-08T22:21:23.923Z,11.02
2023-08-08T22:23:51.354Z,11.02
2023-08-08T22:26:18.212Z,11.00
2023-08-08T22:28:45.394Z,11.02
2023-08-08T22:31:12.343Z,11.00
2023-08-08T22:33:39.430Z,10.94
2023-08-08T22:36:06.313Z,10.93
2023-08-08T22:38:34.234Z,10.94
2023-08-08T22:41:01.165Z,10.95
2023-08-08T22:43:28.145Z,10.91
2023-08-08T22:45:55.236Z,10.91
2023-08-08T22:48:22.178Z,10.88
2023-08-08T22:50:49.174Z,10.89
2023-08-08T22:53:16.282Z,10.88
2023-08-08T22:55:43.271Z,10.91
2023-08-08T22:58:10.345Z,10.93
2023-08-08T23:00:39.110Z,10.95
2023-08-08T23:03:06.466Z,10.99
2023-08-08T23:05:33.629Z,11.01
2023-08-08T23:08:00.465Z,11.01
2023-08-08T23:10:27.464Z,11.01
2023-08-08T23:12:54.540Z,11.02
2023-08-08T23:15:21.467Z,11.01
2023-08-08T23:17:48.513Z,10.99
2023-08-08T23:20:15.537Z,10.96
2023-08-08T23:22:42.415Z,10.96
2023-08-08T23:25:10.533Z,10.93
2023-08-08T23:27:37.484Z,10.91
2023-08-08T23:30:05.399Z,10.89
2023-08-08T23:32:32.572Z,10.85
2023-08-08T23:34:59.517Z,10.82
2023-08-08T23:37:26.515Z,10.80
2023-08-08T23:39:53.651Z,10.77
2023-08-08T23:42:20.766Z,10.77
2023-08-08T23:44:47.572Z,10.76
2023-08-08T23:47:14.664Z,10.76
2023-08-08T23:49:41.502Z,10.76
2023-08-08T23:52:08.499Z,10.75
2023-08-08T23:54:35.358Z,10.72
2023-08-08T23:57:02.670Z,10.71
2023-08-08T23:59:29.846Z,10.67
